sensor_id;sensor_type;location;lat;lon;timestamp;temperature;humidity
51839;DHT22;37886;53.174;6.368;2023-04-09T00:02:16;8.80;99.90
51839;DHT22;37886;53.174;6.368;2023-04-09T00:04:42;8.80;99.90
51839;DHT22;37886;53.174;6.368;2023-04-09T00:07:08;8.70;99.90
51839;DHT22;37886;53.174;6.368;2023-04-09T00:09:33;8.70;99.90
51839;DHT22;37886;53.174;6.368;2023-04-09T00:12:00;8.70;99.90
51839;DHT22;37886;53.174;6.368;2023-04-09T00:14:26;8.70;99.90
51839;DHT22;37886;53.174;6.368;2023-04-09T00:16:52;8.60;99.90
51839;DHT22;37886;53.174;6.368;2023-04-09T00:19:18;8.60;99.90
51839;DHT22;37886;53.174;6.368;2023-04-09T00:21:45;8.60;99.90
51839;DHT22;37886;53.174;6.368;2023-04-09T00:24:11;8.50;99.90
51839;DHT22;37886;53.174;6.368;2023-04-09T00:26:37;8.50;99.90
51839;DHT22;37886;53.174;6.368;2023-04-09T00:29:02;8.50;99.90
51839;DHT22;37886;53.174;6.368;2023-04-09T00:31:28;8.50;99.90
51839;DHT22;37886;53.174;6.368;2023-04-09T00:33:54;8.50;99.90
51839;DHT22;37886;53.174;6.368;2023-04-09T00:36:20;8.50;99.90
51839;DHT22;37886;53.174;6.368;2023-04-09T00:38:46;8.40;99.90
51839;DHT22;37886;53.174;6.368;2023-04-09T00:41:13;8.40;99.90
51839;DHT22;37886;53.174;6.368;2023-04-09T00:43:38;8.40;99.90
51839;DHT22;37886;53.174;6.368;2023-04-09T00:46:04;8.40;99.90
51839;DHT22;37886;53.174;6.368;2023-04-09T00:48:30;8.40;99.90
51839;DHT22;37886;53.174;6.368;2023-04-09T00:50:56;8.40;99.90
51839;DHT22;37886;53.174;6.368;2023-04-09T00:53:22;8.40;99.90
51839;DHT22;37886;53.174;6.368;2023-04-09T00:55:47;8.40;99.90
51839;DHT22;37886;53.174;6.368;2023-04-09T00:58:13;8.40;99.90
51839;DHT22;37886;53.174;6.368;2023-04-09T01:00:40;8.40;99.90
51839;DHT22;37886;53.174;6.368;2023-04-09T01:03:06;8.40;99.90
51839;DHT22;37886;53.174;6.368;2023-04-09T01:05:57;8.40;99.90
51839;DHT22;37886;53.174;6.368;2023-04-09T01:14:38;8.40;99.90
51839;DHT22;37886;53.174;6.368;2023-04-09T01:17:09;8.30;99.90
51839;DHT22;37886;53.174;6.368;2023-04-09T01:22:07;8.30;99.90
51839;DHT22;37886;53.174;6.368;2023-04-09T01:27:38;8.20;99.90
51839;DHT22;37886;53.174;6.368;2023-04-09T01:30:09;8.20;99.90
51839;DHT22;37886;53.174;6.368;2023-04-09T01:32:36;8.20;99.90
51839;DHT22;37886;53.174;6.368;2023-04-09T01:35:03;8.20;99.90
51839;DHT22;37886;53.174;6.368;2023-04-09T01:37:30;8.20;99.90
51839;DHT22;37886;53.174;6.368;2023-04-09T01:39:58;8.20;99.90
51839;DHT22;37886;53.174;6.368;2023-04-09T01:42:24;8.20;99.90
51839;DHT22;37886;53.174;6.368;2023-04-09T01:44:51;8.20;99.90
51839;DHT22;37886;53.174;6.368;2023-04-09T01:47:17;8.20;99.90
51839;DHT22;37886;53.174;6.368;2023-04-09T01:49:45;8.20;99.90
51839;DHT22;37886;53.174;6.368;2023-04-09T01:52:11;8.20;99.90
51839;DHT22;37886;53.174;6.368;2023-04-09T01:54:37;8.20;99.90
51839;DHT22;37886;53.174;6.368;2023-04-09T01:57:02;8.20;99.90
51839;DHT22;37886;53.174;6.368;2023-04-09T01:59:28;8.20;99.90
51839;DHT22;37886;53.174;6.368;2023-04-09T02:01:59;8.20;99.90
51839;DHT22;37886;53.174;6.368;2023-04-09T02:04:39;8.20;99.90
51839;DHT22;37886;53.174;6.368;2023-04-09T02:07:26;8.20;99.90
51839;DHT22;37886;53.174;6.368;2023-04-09T02:09:53;8.20;99.90
51839;DHT22;37886;53.174;6.368;2023-04-09T02:12:20;8.20;99.90
51839;DHT22;37886;53.174;6.368;2023-04-09T02:14:50;8.20;99.90
51839;DHT22;37886;53.174;6.368;2023-04-09T02:17:16;8.10;99.90
51839;DHT22;37886;53.174;6.368;2023-04-09T02:19:44;8.00;99.90
51839;DHT22;37886;53.174;6.368;2023-04-09T02:22:10;8.00;99.90
51839;DHT22;37886;53.174;6.368;2023-04-09T02:24:36;8.00;99.90
51839;DHT22;37886;53.174;6.368;2023-04-09T02:27:02;8.00;99.90
51839;DHT22;37886;53.174;6.368;2023-04-09T02:29:29;8.00;99.90
51839;DHT22;37886;53.174;6.368;2023-04-09T02:31:55;7.90;99.90
51839;DHT22;37886;53.174;6.368;2023-04-09T02:34:20;7.90;99.90
51839;DHT22;37886;53.174;6.368;2023-04-09T02:36:46;7.90;99.90
51839;DHT22;37886;53.174;6.368;2023-04-09T02:39:12;7.90;99.90
51839;DHT22;37886;53.174;6.368;2023-04-09T02:41:38;7.90;99.90
51839;DHT22;37886;53.174;6.368;2023-04-09T02:44:04;7.90;99.90
51839;DHT22;37886;53.174;6.368;2023-04-09T02:46:30;7.90;99.90
51839;DHT22;37886;53.174;6.368;2023-04-09T02:48:55;7.90;99.90
51839;DHT22;37886;53.174;6.368;2023-04-09T02:51:21;7.90;99.90
51839;DHT22;37886;53.174;6.368;2023-04-09T02:53:47;7.80;99.90
51839;DHT22;37886;53.174;6.368;2023-04-09T02:56:13;7.80;99.90
51839;DHT22;37886;53.174;6.368;2023-04-09T02:58:38;7.80;99.90
51839;DHT22;37886;53.174;6.368;2023-04-09T03:01:04;7.80;99.90
51839;DHT22;37886;53.174;6.368;2023-04-09T03:03:30;7.70;99.90
51839;DHT22;37886;53.174;6.368;2023-04-09T03:05:56;7.70;99.90
51839;DHT22;37886;53.174;6.368;2023-04-09T03:08:22;7.70;99.90
51839;DHT22;37886;53.174;6.368;2023-04-09T03:10:48;7.70;99.90
51839;DHT22;37886;53.174;6.368;2023-04-09T03:13:14;7.70;99.90
51839;DHT22;37886;53.174;6.368;2023-04-09T03:15:39;7.60;99.90
51839;DHT22;37886;53.174;6.368;2023-04-09T03:18:05;7.60;99.90
51839;DHT22;37886;53.174;6.368;2023-04-09T03:20:31;7.50;99.90
51839;DHT22;37886;53.174;6.368;2023-04-09T03:22:57;7.50;99.90
51839;DHT22;37886;53.174;6.368;2023-04-09T03:25:23;7.50;99.90
51839;DHT22;37886;53.174;6.368;2023-04-09T03:27:48;7.50;99.90
51839;DHT22;37886;53.174;6.368;2023-04-09T03:30:14;7.60;99.90
51839;DHT22;37886;53.174;6.368;2023-04-09T03:32:42;7.60;99.90
51839;DHT22;37886;53.174;6.368;2023-04-09T03:35:08;7.50;99.90
51839;DHT22;37886;53.174;6.368;2023-04-09T03:37:33;7.50;99.90
51839;DHT22;37886;53.174;6.368;2023-04-09T03:39:59;7.50;99.90
51839;DHT22;37886;53.174;6.368;2023-04-09T03:42:25;7.50;99.90
51839;DHT22;37886;53.174;6.368;2023-04-09T03:44:52;7.50;99.90
51839;DHT22;37886;53.174;6.368;2023-04-09T03:47:19;7.50;99.90
51839;DHT22;37886;53.174;6.368;2023-04-09T03:49:44;7.50;99.90
51839;DHT22;37886;53.174;6.368;2023-04-09T03:52:10;7.50;99.90
51839;DHT22;37886;53.174;6.368;2023-04-09T03:54:35;7.40;99.90
51839;DHT22;37886;53.174;6.368;2023-04-09T03:57:01;7.40;99.90
51839;DHT22;37886;53.174;6.368;2023-04-09T03:59:28;7.40;99.90
51839;DHT22;37886;53.174;6.368;2023-04-09T04:01:53;7.40;99.90
51839;DHT22;37886;53.174;6.368;2023-04-09T04:04:19;7.40;99.90
51839;DHT22;37886;53.174;6.368;2023-04-09T04:06:45;7.40;99.90
51839;DHT22;37886;53.174;6.368;2023-04-09T04:09:10;7.40;99.90
51839;DHT22;37886;53.174;6.368;2023-04-09T04:11:36;7.40;99.90
51839;DHT22;37886;53.174;6.368;2023-04-09T04:14:02;7.40;99.90
51839;DHT22;37886;53.174;6.368;2023-04-09T04:16:27;7.40;99.90
51839;DHT22;37886;53.174;6.368;2023-04-09T04:18:53;7.40;99.90
51839;DHT22;37886;53.174;6.368;2023-04-09T04:21:19;7.40;99.90
51839;DHT22;37886;53.174;6.368;2023-04-09T04:23:44;7.40;99.90
51839;DHT22;37886;53.174;6.368;2023-04-09T04:26:10;7.40;99.90
51839;DHT22;37886;53.174;6.368;2023-04-09T04:28:37;7.40;99.90
51839;DHT22;37886;53.174;6.368;2023-04-09T04:31:07;7.40;99.90
51839;DHT22;37886;53.174;6.368;2023-04-09T04:33:33;7.40;99.90
51839;DHT22;37886;53.174;6.368;2023-04-09T04:36:05;7.50;99.90
51839;DHT22;37886;53.174;6.368;2023-04-09T04:38:31;7.40;99.90
51839;DHT22;37886;53.174;6.368;2023-04-09T04:40:57;7.50;99.90
51839;DHT22;37886;53.174;6.368;2023-04-09T04:43:23;7.40;99.90
51839;DHT22;37886;53.174;6.368;2023-04-09T04:45:48;7.50;99.90
51839;DHT22;37886;53.174;6.368;2023-04-09T04:48:14;7.50;99.90
51839;DHT22;37886;53.174;6.368;2023-04-09T04:50:39;7.50;99.90
51839;DHT22;37886;53.174;6.368;2023-04-09T04:53:05;7.50;99.90
51839;DHT22;37886;53.174;6.368;2023-04-09T04:55:33;7.50;99.90
51839;DHT22;37886;53.174;6.368;2023-04-09T04:57:59;7.50;99.90
51839;DHT22;37886;53.174;6.368;2023-04-09T05:00:25;7.60;99.90
51839;DHT22;37886;53.174;6.368;2023-04-09T05:02:50;7.60;99.90
51839;DHT22;37886;53.174;6.368;2023-04-09T05:05:16;7.60;99.90
51839;DHT22;37886;53.174;6.368;2023-04-09T05:07:42;7.60;99.90
51839;DHT22;37886;53.174;6.368;2023-04-09T05:10:08;7.60;99.90
51839;DHT22;37886;53.174;6.368;2023-04-09T05:12:33;7.60;99.90
51839;DHT22;37886;53.174;6.368;2023-04-09T05:14:59;7.60;99.90
51839;DHT22;37886;53.174;6.368;2023-04-09T05:17:25;7.60;99.90
51839;DHT22;37886;53.174;6.368;2023-04-09T05:19:51;7.60;99.90
51839;DHT22;37886;53.174;6.368;2023-04-09T05:22:17;7.60;99.90
51839;DHT22;37886;53.174;6.368;2023-04-09T05:24:43;7.60;99.90
51839;DHT22;37886;53.174;6.368;2023-04-09T05:27:09;7.60;99.90
51839;DHT22;37886;53.174;6.368;2023-04-09T05:29:35;7.70;99.90
51839;DHT22;37886;53.174;6.368;2023-04-09T05:32:00;7.70;99.90
51839;DHT22;37886;53.174;6.368;2023-04-09T05:34:26;7.70;99.90
51839;DHT22;37886;53.174;6.368;2023-04-09T05:36:53;7.70;99.90
51839;DHT22;37886;53.174;6.368;2023-04-09T05:39:20;7.70;99.90
51839;DHT22;37886;53.174;6.368;2023-04-09T05:41:45;7.70;99.90
51839;DHT22;37886;53.174;6.368;2023-04-09T05:44:11;7.70;99.90
51839;DHT22;37886;53.174;6.368;2023-04-09T05:46:37;7.70;99.90
51839;DHT22;37886;53.174;6.368;2023-04-09T05:49:03;7.80;99.90
51839;DHT22;37886;53.174;6.368;2023-04-09T05:51:29;7.80;99.90
51839;DHT22;37886;53.174;6.368;2023-04-09T05:53:55;7.80;99.90
51839;DHT22;37886;53.174;6.368;2023-04-09T05:56:20;7.80;99.90
51839;DHT22;37886;53.174;6.368;2023-04-09T05:58:49;7.80;99.90
51839;DHT22;37886;53.174;6.368;2023-04-09T06:01:15;7.80;99.90
51839;DHT22;37886;53.174;6.368;2023-04-09T06:03:41;7.80;99.90
51839;DHT22;37886;53.174;6.368;2023-04-09T06:06:07;7.90;99.90
51839;DHT22;37886;53.174;6.368;2023-04-09T06:08:33;7.90;99.90
51839;DHT22;37886;53.174;6.368;2023-04-09T06:10:58;8.00;99.90
51839;DHT22;37886;53.174;6.368;2023-04-09T06:13:24;8.00;99.90
51839;DHT22;37886;53.174;6.368;2023-04-09T06:15:50;8.00;99.90
51839;DHT22;37886;53.174;6.368;2023-04-09T06:18:16;8.00;99.90
51839;DHT22;37886;53.174;6.368;2023-04-09T06:20:42;8.00;99.90
51839;DHT22;37886;53.174;6.368;2023-04-09T06:23:11;8.10;99.90
51839;DHT22;37886;53.174;6.368;2023-04-09T06:25:36;8.10;99.90
51839;DHT22;37886;53.174;6.368;2023-04-09T06:28:02;8.10;99.90
51839;DHT22;37886;53.174;6.368;2023-04-09T06:30:28;8.10;99.90
51839;DHT22;37886;53.174;6.368;2023-04-09T06:32:56;8.10;99.90
51839;DHT22;37886;53.174;6.368;2023-04-09T06:35:22;8.10;99.90
51839;DHT22;37886;53.174;6.368;2023-04-09T06:37:47;8.10;99.90
51839;DHT22;37886;53.174;6.368;2023-04-09T06:40:13;8.20;99.90
51839;DHT22;37886;53.174;6.368;2023-04-09T06:42:39;8.20;99.90
51839;DHT22;37886;53.174;6.368;2023-04-09T06:45:08;8.20;99.90
51839;DHT22;37886;53.174;6.368;2023-04-09T06:47:34;8.20;99.90
51839;DHT22;37886;53.174;6.368;2023-04-09T06:50:00;8.20;99.90
51839;DHT22;37886;53.174;6.368;2023-04-09T06:52:26;8.20;99.90
51839;DHT22;37886;53.174;6.368;2023-04-09T06:54:51;8.30;99.90
51839;DHT22;37886;53.174;6.368;2023-04-09T06:57:17;8.30;99.90
51839;DHT22;37886;53.174;6.368;2023-04-09T06:59:43;8.30;99.90
51839;DHT22;37886;53.174;6.368;2023-04-09T07:02:08;8.30;99.90
51839;DHT22;37886;53.174;6.368;2023-04-09T07:04:35;8.40;99.90
51839;DHT22;37886;53.174;6.368;2023-04-09T07:07:00;8.30;99.90
51839;DHT22;37886;53.174;6.368;2023-04-09T07:09:26;8.40;99.90
51839;DHT22;37886;53.174;6.368;2023-04-09T07:11:52;8.40;99.90
51839;DHT22;37886;53.174;6.368;2023-04-09T07:14:18;8.30;99.90
51839;DHT22;37886;53.174;6.368;2023-04-09T07:16:44;8.40;99.90
51839;DHT22;37886;53.174;6.368;2023-04-09T07:19:11;8.40;99.90
51839;DHT22;37886;53.174;6.368;2023-04-09T07:21:37;8.40;99.90
51839;DHT22;37886;53.174;6.368;2023-04-09T07:24:02;8.50;99.90
51839;DHT22;37886;53.174;6.368;2023-04-09T07:26:29;8.50;99.90
51839;DHT22;37886;53.174;6.368;2023-04-09T07:28:54;8.60;99.90
51839;DHT22;37886;53.174;6.368;2023-04-09T07:31:20;8.60;99.90
51839;DHT22;37886;53.174;6.368;2023-04-09T07:33:47;8.70;99.90
51839;DHT22;37886;53.174;6.368;2023-04-09T07:36:12;8.90;99.90
51839;DHT22;37886;53.174;6.368;2023-04-09T07:38:38;8.90;99.90
51839;DHT22;37886;53.174;6.368;2023-04-09T07:41:04;8.90;99.90
51839;DHT22;37886;53.174;6.368;2023-04-09T07:43:30;8.70;99.90
51839;DHT22;37886;53.174;6.368;2023-04-09T07:45:56;8.80;99.90
51839;DHT22;37886;53.174;6.368;2023-04-09T07:48:22;8.90;99.90
51839;DHT22;37886;53.174;6.368;2023-04-09T07:50:48;9.00;99.90
51839;DHT22;37886;53.174;6.368;2023-04-09T07:53:13;9.00;99.90
51839;DHT22;37886;53.174;6.368;2023-04-09T07:55:40;8.90;99.90
51839;DHT22;37886;53.174;6.368;2023-04-09T07:58:06;9.10;99.90
51839;DHT22;37886;53.174;6.368;2023-04-09T08:00:32;9.20;99.90
51839;DHT22;37886;53.174;6.368;2023-04-09T08:02:57;9.20;99.90
51839;DHT22;37886;53.174;6.368;2023-04-09T08:05:23;9.30;99.90
51839;DHT22;37886;53.174;6.368;2023-04-09T08:07:52;9.30;99.90
51839;DHT22;37886;53.174;6.368;2023-04-09T08:10:18;9.30;99.90
51839;DHT22;37886;53.174;6.368;2023-04-09T08:12:43;9.20;99.90
51839;DHT22;37886;53.174;6.368;2023-04-09T08:15:10;9.30;99.90
51839;DHT22;37886;53.174;6.368;2023-04-09T08:17:36;9.30;99.90
51839;DHT22;37886;53.174;6.368;2023-04-09T08:20:03;9.30;99.90
51839;DHT22;37886;53.174;6.368;2023-04-09T08:22:29;9.30;99.90
51839;DHT22;37886;53.174;6.368;2023-04-09T08:24:55;9.30;99.90
51839;DHT22;37886;53.174;6.368;2023-04-09T08:27:22;9.30;99.90
51839;DHT22;37886;53.174;6.368;2023-04-09T08:29:48;9.50;99.90
51839;DHT22;37886;53.174;6.368;2023-04-09T08:32:14;9.40;99.90
51839;DHT22;37886;53.174;6.368;2023-04-09T08:34:39;9.40;99.90
51839;DHT22;37886;53.174;6.368;2023-04-09T08:37:05;9.40;99.90
51839;DHT22;37886;53.174;6.368;2023-04-09T08:39:31;9.50;99.90
51839;DHT22;37886;53.174;6.368;2023-04-09T08:41:58;9.50;99.90
51839;DHT22;37886;53.174;6.368;2023-04-09T08:44:27;9.80;99.90
51839;DHT22;37886;53.174;6.368;2023-04-09T08:46:53;9.80;99.90
51839;DHT22;37886;53.174;6.368;2023-04-09T08:49:20;9.70;99.90
51839;DHT22;37886;53.174;6.368;2023-04-09T08:51:47;9.70;99.90
51839;DHT22;37886;53.174;6.368;2023-04-09T08:54:17;9.70;99.90
51839;DHT22;37886;53.174;6.368;2023-04-09T08:56:45;9.80;99.90
51839;DHT22;37886;53.174;6.368;2023-04-09T08:59:14;9.80;99.90
51839;DHT22;37886;53.174;6.368;2023-04-09T09:01:41;9.80;99.90
51839;DHT22;37886;53.174;6.368;2023-04-09T09:04:08;9.90;99.90
51839;DHT22;37886;53.174;6.368;2023-04-09T09:06:36;10.10;99.90
51839;DHT22;37886;53.174;6.368;2023-04-09T09:09:13;10.10;99.90
51839;DHT22;37886;53.174;6.368;2023-04-09T09:14:08;10.30;99.90
51839;DHT22;37886;53.174;6.368;2023-04-09T09:16:36;10.40;99.90
51839;DHT22;37886;53.174;6.368;2023-04-09T09:19:05;10.50;99.90
51839;DHT22;37886;53.174;6.368;2023-04-09T09:21:31;10.50;99.90
51839;DHT22;37886;53.174;6.368;2023-04-09T09:24:01;10.60;99.90
51839;DHT22;37886;53.174;6.368;2023-04-09T09:26:28;10.30;99.90
51839;DHT22;37886;53.174;6.368;2023-04-09T09:28:55;10.40;99.90
51839;DHT22;37886;53.174;6.368;2023-04-09T09:31:23;10.50;99.90
51839;DHT22;37886;53.174;6.368;2023-04-09T09:33:50;10.70;99.90
51839;DHT22;37886;53.174;6.368;2023-04-09T09:36:32;10.70;99.90
51839;DHT22;37886;53.174;6.368;2023-04-09T09:39:00;10.90;99.90
51839;DHT22;37886;53.174;6.368;2023-04-09T09:41:28;10.90;99.90
51839;DHT22;37886;53.174;6.368;2023-04-09T09:43:54;10.90;99.90
51839;DHT22;37886;53.174;6.368;2023-04-09T09:46:20;11.00;99.90
51839;DHT22;37886;53.174;6.368;2023-04-09T09:48:46;11.20;99.90
51839;DHT22;37886;53.174;6.368;2023-04-09T09:51:14;11.50;99.90
51839;DHT22;37886;53.174;6.368;2023-04-09T09:53:43;11.40;99.90
51839;DHT22;37886;53.174;6.368;2023-04-09T09:56:20;11.60;99.90
51839;DHT22;37886;53.174;6.368;2023-04-09T09:58:59;11.70;99.90
51839;DHT22;37886;53.174;6.368;2023-04-09T10:01:28;11.90;99.90
51839;DHT22;37886;53.174;6.368;2023-04-09T10:03:56;11.90;99.90
51839;DHT22;37886;53.174;6.368;2023-04-09T10:06:24;11.70;99.90
51839;DHT22;37886;53.174;6.368;2023-04-09T10:08:51;11.50;99.90
51839;DHT22;37886;53.174;6.368;2023-04-09T10:11:19;11.60;99.90
51839;DHT22;37886;53.174;6.368;2023-04-09T10:13:50;11.50;99.90
51839;DHT22;37886;53.174;6.368;2023-04-09T10:16:18;11.60;99.90
51839;DHT22;37886;53.174;6.368;2023-04-09T10:18:45;11.90;99.90
51839;DHT22;37886;53.174;6.368;2023-04-09T10:21:13;11.80;99.90
51839;DHT22;37886;53.174;6.368;2023-04-09T10:23:43;11.90;99.90
51839;DHT22;37886;53.174;6.368;2023-04-09T10:26:09;11.80;99.90
51839;DHT22;37886;53.174;6.368;2023-04-09T10:28:39;11.80;99.90
51839;DHT22;37886;53.174;6.368;2023-04-09T10:31:06;11.50;99.90
51839;DHT22;37886;53.174;6.368;2023-04-09T10:33:32;11.90;99.90
51839;DHT22;37886;53.174;6.368;2023-04-09T10:36:09;12.50;99.90
51839;DHT22;37886;53.174;6.368;2023-04-09T10:38:41;12.80;99.90
51839;DHT22;37886;53.174;6.368;2023-04-09T10:41:26;12.60;99.90
51839;DHT22;37886;53.174;6.368;2023-04-09T10:43:52;13.10;99.90
51839;DHT22;37886;53.174;6.368;2023-04-09T10:46:26;13.50;99.90
51839;DHT22;37886;53.174;6.368;2023-04-09T10:49:11;13.80;99.90
51839;DHT22;37886;53.174;6.368;2023-04-09T10:51:40;14.30;99.90
51839;DHT22;37886;53.174;6.368;2023-04-09T10:59:41;12.90;99.90
51839;DHT22;37886;53.174;6.368;2023-04-09T11:07:25;13.70;99.90
51839;DHT22;37886;53.174;6.368;2023-04-09T11:09:52;13.50;99.90
51839;DHT22;37886;53.174;6.368;2023-04-09T11:12:18;14.20;99.90
51839;DHT22;37886;53.174;6.368;2023-04-09T11:14:43;14.10;99.90
51839;DHT22;37886;53.174;6.368;2023-04-09T11:17:09;13.90;99.90
51839;DHT22;37886;53.174;6.368;2023-04-09T11:19:35;13.70;99.90
51839;DHT22;37886;53.174;6.368;2023-04-09T11:22:03;13.60;99.90
51839;DHT22;37886;53.174;6.368;2023-04-09T11:24:44;14.10;99.90
51839;DHT22;37886;53.174;6.368;2023-04-09T11:27:11;14.30;99.90
51839;DHT22;37886;53.174;6.368;2023-04-09T11:29:37;13.80;99.90
51839;DHT22;37886;53.174;6.368;2023-04-09T11:32:04;13.40;99.90
51839;DHT22;37886;53.174;6.368;2023-04-09T11:34:30;14.30;99.90
51839;DHT22;37886;53.174;6.368;2023-04-09T11:36:56;14.30;99.90
51839;DHT22;37886;53.174;6.368;2023-04-09T11:39:24;14.00;99.90
51839;DHT22;37886;53.174;6.368;2023-04-09T11:41:50;14.60;99.90
51839;DHT22;37886;53.174;6.368;2023-04-09T11:44:16;14.70;99.90
51839;DHT22;37886;53.174;6.368;2023-04-09T11:46:42;14.90;99.90
51839;DHT22;37886;53.174;6.368;2023-04-09T11:49:09;14.90;99.90
51839;DHT22;37886;53.174;6.368;2023-04-09T11:51:35;15.10;99.90
51839;DHT22;37886;53.174;6.368;2023-04-09T11:54:01;14.90;99.90
51839;DHT22;37886;53.174;6.368;2023-04-09T11:56:31;14.60;99.90
51839;DHT22;37886;53.174;6.368;2023-04-09T11:58:58;14.30;99.90
51839;DHT22;37886;53.174;6.368;2023-04-09T12:01:30;14.80;99.90
51839;DHT22;37886;53.174;6.368;2023-04-09T12:03:57;15.20;99.90
51839;DHT22;37886;53.174;6.368;2023-04-09T12:06:22;15.00;99.90
51839;DHT22;37886;53.174;6.368;2023-04-09T12:08:58;15.50;99.90
51839;DHT22;37886;53.174;6.368;2023-04-09T12:11:28;15.90;99.90
51839;DHT22;37886;53.174;6.368;2023-04-09T12:14:01;16.80;99.90
51839;DHT22;37886;53.174;6.368;2023-04-09T12:16:31;16.50;99.90
51839;DHT22;37886;53.174;6.368;2023-04-09T12:19:07;15.20;99.90
51839;DHT22;37886;53.174;6.368;2023-04-09T12:21:50;15.60;99.90
51839;DHT22;37886;53.174;6.368;2023-04-09T12:24:18;16.90;99.90
51839;DHT22;37886;53.174;6.368;2023-04-09T12:26:45;17.20;99.90
51839;DHT22;37886;53.174;6.368;2023-04-09T12:29:13;16.60;99.90
51839;DHT22;37886;53.174;6.368;2023-04-09T12:31:39;16.30;99.90
51839;DHT22;37886;53.174;6.368;2023-04-09T12:34:05;16.30;99.90
51839;DHT22;37886;53.174;6.368;2023-04-09T12:36:31;17.00;99.90
51839;DHT22;37886;53.174;6.368;2023-04-09T12:38:56;16.70;99.90
51839;DHT22;37886;53.174;6.368;2023-04-09T12:41:22;15.80;99.90
51839;DHT22;37886;53.174;6.368;2023-04-09T12:43:48;15.50;99.90
51839;DHT22;37886;53.174;6.368;2023-04-09T12:46:14;15.30;99.90
51839;DHT22;37886;53.174;6.368;2023-04-09T12:48:40;15.30;99.90
51839;DHT22;37886;53.174;6.368;2023-04-09T12:51:06;15.90;99.90
51839;DHT22;37886;53.174;6.368;2023-04-09T12:53:32;15.60;99.90
51839;DHT22;37886;53.174;6.368;2023-04-09T12:55:58;15.60;99.90
51839;DHT22;37886;53.174;6.368;2023-04-09T12:58:23;15.90;99.90
51839;DHT22;37886;53.174;6.368;2023-04-09T13:00:49;15.70;99.90
51839;DHT22;37886;53.174;6.368;2023-04-09T13:03:15;15.70;99.90
51839;DHT22;37886;53.174;6.368;2023-04-09T13:05:41;15.60;99.90
51839;DHT22;37886;53.174;6.368;2023-04-09T13:08:07;15.50;99.90
51839;DHT22;37886;53.174;6.368;2023-04-09T13:10:33;16.40;99.90
51839;DHT22;37886;53.174;6.368;2023-04-09T13:12:59;17.20;99.90
51839;DHT22;37886;53.174;6.368;2023-04-09T13:15:25;17.50;99.90
51839;DHT22;37886;53.174;6.368;2023-04-09T13:17:51;17.50;99.90
51839;DHT22;37886;53.174;6.368;2023-04-09T13:20:17;18.50;99.90
51839;DHT22;37886;53.174;6.368;2023-04-09T13:22:44;19.00;98.70
51839;DHT22;37886;53.174;6.368;2023-04-09T13:25:13;18.70;97.50
51839;DHT22;37886;53.174;6.368;2023-04-09T13:27:39;18.20;99.70
51839;DHT22;37886;53.174;6.368;2023-04-09T13:30:06;17.70;97.10
51839;DHT22;37886;53.174;6.368;2023-04-09T13:32:32;17.30;97.70
51839;DHT22;37886;53.174;6.368;2023-04-09T13:34:57;17.50;99.90
51839;DHT22;37886;53.174;6.368;2023-04-09T13:37:23;18.70;98.50
51839;DHT22;37886;53.174;6.368;2023-04-09T13:39:49;18.10;97.00
51839;DHT22;37886;53.174;6.368;2023-04-09T13:42:16;17.20;99.20
51839;DHT22;37886;53.174;6.368;2023-04-09T13:44:42;17.10;98.50
51839;DHT22;37886;53.174;6.368;2023-04-09T13:47:14;17.40;99.70
51839;DHT22;37886;53.174;6.368;2023-04-09T13:49:43;18.20;97.70
51839;DHT22;37886;53.174;6.368;2023-04-09T13:52:09;17.70;97.80
51839;DHT22;37886;53.174;6.368;2023-04-09T13:54:35;18.30;98.50
51839;DHT22;37886;53.174;6.368;2023-04-09T13:57:01;19.20;96.70
51839;DHT22;37886;53.174;6.368;2023-04-09T13:59:27;18.30;96.50
51839;DHT22;37886;53.174;6.368;2023-04-09T14:01:53;17.60;97.90
51839;DHT22;37886;53.174;6.368;2023-04-09T14:04:19;18.50;96.60
51839;DHT22;37886;53.174;6.368;2023-04-09T14:06:45;19.40;95.50
51839;DHT22;37886;53.174;6.368;2023-04-09T14:09:11;19.80;92.20
51839;DHT22;37886;53.174;6.368;2023-04-09T14:11:37;18.90;94.60
51839;DHT22;37886;53.174;6.368;2023-04-09T14:14:03;19.30;95.90
51839;DHT22;37886;53.174;6.368;2023-04-09T14:16:29;19.80;92.40
51839;DHT22;37886;53.174;6.368;2023-04-09T14:18:56;19.70;95.60
51839;DHT22;37886;53.174;6.368;2023-04-09T14:21:22;20.40;91.00
51839;DHT22;37886;53.174;6.368;2023-04-09T14:23:48;19.40;94.40
51839;DHT22;37886;53.174;6.368;2023-04-09T14:26:14;18.70;92.70
51839;DHT22;37886;53.174;6.368;2023-04-09T14:28:41;18.50;92.80
51839;DHT22;37886;53.174;6.368;2023-04-09T14:31:07;19.10;94.30
51839;DHT22;37886;53.174;6.368;2023-04-09T14:33:33;20.30;92.00
51839;DHT22;37886;53.174;6.368;2023-04-09T14:35:59;19.30;91.30
51839;DHT22;37886;53.174;6.368;2023-04-09T14:38:25;17.60;94.00
51839;DHT22;37886;53.174;6.368;2023-04-09T14:40:51;16.80;97.20
51839;DHT22;37886;53.174;6.368;2023-04-09T14:43:17;16.30;98.00
51839;DHT22;37886;53.174;6.368;2023-04-09T14:45:43;17.80;96.10
51839;DHT22;37886;53.174;6.368;2023-04-09T14:48:08;18.80;94.80
51839;DHT22;37886;53.174;6.368;2023-04-09T14:50:35;19.60;93.50
51839;DHT22;37886;53.174;6.368;2023-04-09T14:53:02;19.70;91.10
51839;DHT22;37886;53.174;6.368;2023-04-09T14:55:28;20.00;89.50
51839;DHT22;37886;53.174;6.368;2023-04-09T14:57:54;18.80;91.10
51839;DHT22;37886;53.174;6.368;2023-04-09T15:00:20;18.40;94.10
51839;DHT22;37886;53.174;6.368;2023-04-09T15:02:46;19.30;90.50
51839;DHT22;37886;53.174;6.368;2023-04-09T15:05:12;19.00;91.10
51839;DHT22;37886;53.174;6.368;2023-04-09T15:07:38;18.70;92.10
51839;DHT22;37886;53.174;6.368;2023-04-09T15:10:04;18.60;93.00
51839;DHT22;37886;53.174;6.368;2023-04-09T15:12:30;20.00;90.90
51839;DHT22;37886;53.174;6.368;2023-04-09T15:14:59;20.70;88.20
51839;DHT22;37886;53.174;6.368;2023-04-09T15:17:26;20.60;84.90
51839;DHT22;37886;53.174;6.368;2023-04-09T15:19:53;21.10;88.40
51839;DHT22;37886;53.174;6.368;2023-04-09T15:22:19;21.70;86.10
51839;DHT22;37886;53.174;6.368;2023-04-09T15:24:45;21.70;82.60
51839;DHT22;37886;53.174;6.368;2023-04-09T15:27:11;20.60;84.20
51839;DHT22;37886;53.174;6.368;2023-04-09T15:29:37;20.40;85.50
51839;DHT22;37886;53.174;6.368;2023-04-09T15:32:03;20.00;84.40
51839;DHT22;37886;53.174;6.368;2023-04-09T15:34:28;19.60;87.00
51839;DHT22;37886;53.174;6.368;2023-04-09T15:36:54;19.40;87.00
51839;DHT22;37886;53.174;6.368;2023-04-09T15:39:20;19.00;87.00
51839;DHT22;37886;53.174;6.368;2023-04-09T15:41:47;18.50;90.40
51839;DHT22;37886;53.174;6.368;2023-04-09T15:44:13;18.00;91.40
51839;DHT22;37886;53.174;6.368;2023-04-09T15:46:38;17.90;91.70
51839;DHT22;37886;53.174;6.368;2023-04-09T15:49:04;17.90;92.20
51839;DHT22;37886;53.174;6.368;2023-04-09T15:51:30;17.30;92.70
51839;DHT22;37886;53.174;6.368;2023-04-09T15:53:57;17.30;93.00
51839;DHT22;37886;53.174;6.368;2023-04-09T15:56:23;18.10;91.90
51839;DHT22;37886;53.174;6.368;2023-04-09T15:58:48;18.20;91.60
51839;DHT22;37886;53.174;6.368;2023-04-09T16:01:14;18.10;91.90
51839;DHT22;37886;53.174;6.368;2023-04-09T16:03:39;17.80;92.00